Time;durP1;ratioP1;P1;durP2;ratioP2;P2;SDS_P1;SDS_P2;PMS_P1;PMS_P2;Temp;Humidity;BMP_temperature;BMP_pressure;BME280_temperature;BME280_humidity;BME280_pressure;Samples;Min_cycle;Max_cycle;Signal;HPM_P1;HPM_P2
2022/09/22 00:01:23;;;;;;;1.67;1.25;;;19.00;86.20;;;;;;5013620;28;20037;-71
2022/09/22 00:03:54;;;;;;;2.90;1.58;;;19.00;86.40;;;;;;4997518;28;20099;-73
2022/09/22 00:06:24;;;;;;;3.95;1.67;;;19.10;86.60;;;;;;5013587;28;20053;-74
2022/09/22 00:08:55;;;;;;;1.80;1.00;;;19.10;87.00;;;;;;5030875;28;20048;-78
2022/09/22 00:11:27;;;;;;;2.05;1.15;;;19.10;87.10;;;;;;5027048;28;20057;-74
2022/09/22 00:14:01;;;;;;;2.22;1.58;;;19.10;87.10;;;;;;5026715;28;20103;-75
2022/09/22 00:16:42;;;;;;;1.48;0.98;;;19.20;87.10;;;;;;5026671;28;20067;-74
2022/09/22 00:19:13;;;;;;;3.28;1.42;;;19.20;87.00;;;;;;5027466;28;20050;-71
2022/09/22 00:21:40;;;;;;;1.52;0.90;;;19.20;87.00;;;;;;5027364;28;20110;-71
2022/09/22 00:24:08;;;;;;;1.38;1.00;;;19.20;87.50;;;;;;5026839;28;20098;-71
2022/09/22 00:26:37;;;;;;;2.25;1.13;;;19.30;88.10;;;;;;5010129;28;20072;-72
2022/09/22 00:29:08;;;;;;;2.83;1.30;;;19.30;88.30;;;;;;5026286;28;20099;-73
2022/09/22 00:31:40;;;;;;;5.22;1.20;;;19.30;88.30;;;;;;5026593;28;20514;-72
2022/09/22 00:34:13;;;;;;;2.65;0.98;;;19.40;88.40;;;;;;5027565;28;20517;-72
2022/09/22 00:36:41;;;;;;;1.33;0.98;;;19.40;88.60;;;;;;5009771;28;20053;-73
2022/09/22 00:39:09;;;;;;;2.65;1.45;;;19.40;88.80;;;;;;5026409;28;20087;-72
2022/09/22 00:41:40;;;;;;;2.97;1.23;;;19.40;89.30;;;;;;5009410;28;20412;-71
2022/09/22 00:44:20;;;;;;;2.55;1.20;;;19.40;89.40;;;;;;5026601;28;20064;-71
2022/09/22 00:47:00;;;;;;;1.90;1.20;;;19.50;89.70;;;;;;5026277;28;20048;-71
2022/09/22 00:50:05;;;;;;;1.92;1.10;;;19.50;90.10;;;;;;5026086;28;20779;-73
2022/09/22 00:52:39;;;;;;;2.88;1.77;;;19.50;90.20;;;;;;4993862;28;20081;-71
2022/09/22 00:55:17;;;;;;;6.03;1.75;;;19.50;90.30;;;;;;4993518;28;20467;-71
2022/09/22 00:57:46;;;;;;;3.00;1.30;;;19.50;90.60;;;;;;5009755;28;20179;-71
2022/09/22 01:00:14;;;;;;;2.10;1.38;;;19.50;90.90;;;;;;5026172;28;20140;-74
2022/09/22 01:02:45;;;;;;;3.88;1.38;;;19.50;91.20;;;;;;5026405;28;20396;-71
2022/09/22 01:05:13;;;;;;;3.70;1.80;;;19.50;91.40;;;;;;5013589;28;20058;-71
2022/09/22 01:07:42;;;;;;;2.75;1.55;;;19.50;91.60;;;;;;5013574;28;20046;-71
2022/09/22 01:10:10;;;;;;;4.63;1.75;;;19.60;91.70;;;;;;5012985;28;20209;-73
2022/09/22 01:12:44;;;;;;;5.43;1.70;;;19.60;91.80;;;;;;5029460;28;20387;-71
2022/09/22 01:15:31;;;;;;;5.85;2.20;;;19.60;91.80;;;;;;5029564;28;20044;-73
2022/09/22 01:18:16;;;;;;;4.03;1.58;;;19.60;91.80;;;;;;5031420;28;20063;-72
2022/09/22 01:20:52;;;;;;;3.35;1.45;;;19.60;91.80;;;;;;5031026;28;20237;-71
2022/09/22 01:23:57;;;;;;;3.60;1.50;;;19.60;91.60;;;;;;5029386;28;20080;-71
2022/09/22 01:26:49;;;;;;;2.78;1.85;;;19.60;91.00;;;;;;5029084;28;20049;-72
2022/09/22 01:29:38;;;;;;;3.00;1.20;;;19.60;90.30;;;;;;5013090;28;20064;-71
2022/09/22 01:32:16;;;;;;;3.17;1.55;;;19.50;88.60;;;;;;5012900;28;20067;-72
2022/09/22 01:35:09;;;;;;;2.63;1.23;;;19.50;88.10;;;;;;5029320;28;20069;-72
2022/09/22 01:37:56;;;;;;;2.88;1.23;;;19.40;87.70;;;;;;5029333;28;20106;-72
2022/09/22 01:40:32;;;;;;;2.25;1.58;;;19.40;87.40;;;;;;5013129;28;20058;-71
2022/09/22 01:43:18;;;;;;;1.67;1.17;;;19.30;87.20;;;;;;5013345;28;20077;-72
2022/09/22 01:45:47;;;;;;;3.97;1.83;;;19.30;87.10;;;;;;5028929;28;20049;-70
2022/09/22 01:48:23;;;;;;;2.70;1.70;;;19.30;87.10;;;;;;5030824;28;20088;-71
2022/09/22 01:50:59;;;;;;;2.30;1.52;;;19.30;87.20;;;;;;5029975;28;20403;-71
2022/09/22 01:53:34;;;;;;;4.40;1.83;;;19.30;87.20;;;;;;5029240;28;20037;-72
2022/09/22 01:56:06;;;;;;;3.75;1.95;;;19.30;87.20;;;;;;5030373;28;20168;-71
2022/09/22 01:58:39;;;;;;;2.88;1.50;;;19.30;87.00;;;;;;5012548;28;20060;-71
2022/09/22 02:01:24;;;;;;;2.55;1.67;;;19.30;87.00;;;;;;5030221;28;20487;-71
2022/09/22 02:04:03;;;;;;;5.40;1.70;;;19.30;87.20;;;;;;5030402;28;20037;-72
2022/09/22 02:06:37;;;;;;;4.78;1.95;;;19.30;87.30;;;;;;4996011;28;20365;-72
2022/09/22 02:09:22;;;;;;;3.17;1.85;;;19.20;87.30;;;;;;5030229;28;20041;-70
2022/09/22 02:11:50;;;;;;;3.25;1.40;;;19.20;87.40;;;;;;5028377;28;20057;-72
2022/09/22 02:14:18;;;;;;;5.35;1.63;;;19.20;87.50;;;;;;5028649;28;20496;-71
2022/09/22 02:16:45;;;;;;;3.50;1.70;;;19.20;87.50;;;;;;5027961;28;20106;-71
2022/09/22 02:19:31;;;;;;;6.68;2.63;;;19.20;87.60;;;;;;5029802;28;20380;-72
2022/09/22 02:21:59;;;;;;;3.28;1.50;;;19.20;87.70;;;;;;5028592;28;20113;-71
2022/09/22 02:24:45;;;;;;;3.90;2.38;;;19.20;87.90;;;;;;5011245;28;20073;-71
2022/09/22 02:27:26;;;;;;;4.60;1.95;;;19.20;87.90;;;;;;5027811;28;20111;-72
2022/09/22 02:30:09;;;;;;;2.40;1.63;;;19.20;88.10;;;;;;5029581;28;20053;-73
2022/09/22 02:32:42;;;;;;;4.65;2.47;;;19.20;88.00;;;;;;5028301;28;20042;-71
2022/09/22 02:35:09;;;;;;;3.22;1.50;;;19.20;88.20;;;;;;5011884;28;20202;-71
2022/09/22 02:37:50;;;;;;;5.13;2.05;;;19.20;88.30;;;;;;5029685;28;20049;-71
2022/09/22 02:40:28;;;;;;;3.40;2.10;;;19.20;88.20;;;;;;5028874;28;20492;-72
2022/09/22 02:42:59;;;;;;;4.65;1.80;;;19.20;88.30;;;;;;5028351;28;20548;-72
2022/09/22 02:46:08;;;;;;;4.63;1.85;;;19.20;88.30;;;;;;5028172;28;20045;-71
2022/09/22 02:48:46;;;;;;;4.05;1.88;;;19.20;88.40;;;;;;4992374;28;20049;-74
2022/09/22 02:51:15;;;;;;;5.38;1.60;;;19.20;88.10;;;;;;5028128;28;20061;-72
2022/09/22 02:53:43;;;;;;;3.58;1.65;;;19.20;88.10;;;;;;5028427;28;20468;-71
2022/09/22 02:56:10;;;;;;;2.55;1.48;;;19.20;87.90;;;;;;5027884;28;20045;-72
2022/09/22 02:58:38;;;;;;;2.83;1.80;;;19.20;87.80;;;;;;5011669;28;20076;-71
2022/09/22 03:01:05;;;;;;;2.30;1.65;;;19.20;87.80;;;;;;5011300;28;20051;-71
2022/09/22 03:03:33;;;;;;;2.85;1.60;;;19.20;87.80;;;;;;5011518;28;20041;-71
2022/09/22 03:06:01;;;;;;;3.00;1.80;;;19.20;87.80;;;;;;5010591;28;20048;-71
2022/09/22 03:08:28;;;;;;;3.70;2.13;;;19.20;87.90;;;;;;5028640;28;20041;-71
2022/09/22 03:10:56;;;;;;;2.90;1.77;;;19.20;87.90;;;;;;5011177;28;20063;-71
2022/09/22 03:13:23;;;;;;;2.80;2.10;;;19.20;87.90;;;;;;5011333;28;20041;-72
2022/09/22 03:15:52;;;;;;;3.67;2.05;;;19.20;88.00;;;;;;5027626;28;20052;-71
2022/09/22 03:18:19;;;;;;;2.88;1.73;;;19.10;87.90;;;;;;5028970;28;20797;-72
2022/09/22 03:20:47;;;;;;;6.57;2.20;;;19.10;87.90;;;;;;5027460;28;20054;-72
2022/09/22 03:23:14;;;;;;;3.67;1.63;;;19.00;87.80;;;;;;5028961;28;20049;-72
2022/09/22 03:25:42;;;;;;;2.10;1.30;;;19.00;87.80;;;;;;5027228;28;20044;-71
2022/09/22 03:28:09;;;;;;;2.13;1.48;;;19.00;87.60;;;;;;5026633;28;20044;-71
2022/09/22 03:30:39;;;;;;;3.70;1.70;;;18.90;87.30;;;;;;4994609;28;20131;-71
2022/09/22 03:33:06;;;;;;;9.07;2.72;;;18.90;87.30;;;;;;5028438;28;20041;-73
2022/09/22 03:35:34;;;;;;;4.03;2.28;;;18.90;87.10;;;;;;5026459;28;20060;-71
2022/09/22 03:38:02;;;;;;;3.60;1.90;;;18.80;86.70;;;;;;5026705;28;20061;-72
2022/09/22 03:40:30;;;;;;;3.83;1.75;;;18.80;86.80;;;;;;5027622;28;20037;-74
2022/09/22 03:42:57;;;;;;;8.88;2.53;;;18.80;87.20;;;;;;5010834;28;20049;-71
2022/09/22 03:45:26;;;;;;;5.43;1.58;;;18.70;86.60;;;;;;5010192;28;20045;-71
2022/09/22 03:47:54;;;;;;;4.57;1.83;;;18.70;86.70;;;;;;5027201;28;20057;-72
2022/09/22 03:50:21;;;;;;;3.13;1.90;;;18.70;86.60;;;;;;5028146;28;20041;-71
2022/09/22 03:52:49;;;;;;;3.95;1.85;;;18.70;86.80;;;;;;5010084;28;20475;-72
2022/09/22 03:55:16;;;;;;;5.50;1.70;;;18.60;86.70;;;;;;5027830;28;20037;-73
2022/09/22 03:57:44;;;;;;;3.67;1.88;;;18.60;86.80;;;;;;5010041;28;20053;-72
2022/09/22 04:00:13;;;;;;;2.78;1.85;;;18.60;87.00;;;;;;5010280;28;20076;-74
2022/09/22 04:02:40;;;;;;;3.95;1.83;;;18.60;87.10;;;;;;5027084;28;20112;-71
2022/09/22 04:05:09;;;;;;;6.38;2.47;;;18.60;87.10;;;;;;5028160;28;20052;-73
2022/09/22 04:07:36;;;;;;;3.75;1.60;;;18.50;87.00;;;;;;5025800;28;20152;-72
2022/09/22 04:10:04;;;;;;;6.88;1.95;;;18.60;87.00;;;;;;5030282;28;20104;-71
2022/09/22 04:12:31;;;;;;;3.03;2.08;;;18.50;87.10;;;;;;4997293;28;20052;-72
2022/09/22 04:14:59;;;;;;;4.15;2.28;;;18.50;87.20;;;;;;5047802;28;20394;-71
2022/09/22 04:17:26;;;;;;;2.97;1.90;;;18.50;87.30;;;;;;5013582;28;20052;-71
2022/09/22 04:19:54;;;;;;;2.63;1.52;;;18.40;87.10;;;;;;5029972;28;20558;-71
2022/09/22 04:22:21;;;;;;;3.90;2.20;;;18.40;87.00;;;;;;5030108;28;20360;-71
2022/09/22 04:24:49;;;;;;;3.88;2.22;;;18.40;86.80;;;;;;5013449;28;20091;-72
2022/09/22 04:27:16;;;;;;;3.88;2.13;;;18.40;86.70;;;;;;5029501;28;20053;-71
2022/09/22 04:29:46;;;;;;;5.40;1.58;;;18.40;86.60;;;;;;5029428;28;20081;-74
2022/09/22 04:32:15;;;;;;;3.05;2.10;;;18.40;87.20;;;;;;5047734;28;20076;-71
2022/09/22 04:34:42;;;;;;;9.85;3.03;;;18.40;86.50;;;;;;5047676;28;20063;-71
2022/09/22 04:37:11;;;;;;;2.50;1.80;;;18.40;86.70;;;;;;5047253;28;20049;-72
2022/09/22 04:39:38;;;;;;;4.85;1.50;;;18.40;86.60;;;;;;5032565;28;20152;-72
2022/09/22 04:42:07;;;;;;;3.33;2.13;;;18.40;86.60;;;;;;5033499;28;20061;-71
2022/09/22 04:44:35;;;;;;;4.70;2.20;;;18.40;86.40;;;;;;5051262;28;20053;-72
2022/09/22 04:47:03;;;;;;;2.42;1.70;;;18.50;86.50;;;;;;5033748;28;20044;-71
2022/09/22 04:49:31;;;;;;;2.63;1.83;;;18.50;86.30;;;;;;5033795;28;20090;-71
2022/09/22 04:51:59;;;;;;;2.47;1.52;;;18.60;86.10;;;;;;5051591;28;20045;-73
2022/09/22 04:54:26;;;;;;;4.18;1.90;;;18.70;86.10;;;;;;5016832;28;20040;-73
2022/09/22 04:56:54;;;;;;;4.55;2.00;;;18.80;85.90;;;;;;5016679;28;20045;-71
2022/09/22 04:59:21;;;;;;;5.80;2.00;;;18.90;85.70;;;;;;5033108;28;20235;-71
2022/09/22 05:01:49;;;;;;;2.85;1.60;;;19.10;85.40;;;;;;5032876;28;20049;-71
2022/09/22 05:04:17;;;;;;;5.18;1.80;;;19.20;85.20;;;;;;5033327;28;20118;-72
2022/09/22 05:06:44;;;;;;;7.45;2.58;;;19.30;84.70;;;;;;5051201;28;20162;-71
2022/09/22 05:09:12;;;;;;;6.13;1.80;;;19.50;84.40;;;;;;5033672;28;20049;-71
2022/09/22 05:11:39;;;;;;;5.38;2.00;;;19.60;84.10;;;;;;5032845;28;20048;-71
2022/09/22 05:14:07;;;;;;;3.70;1.98;;;19.80;83.80;;;;;;5032875;28;20054;-71
2022/09/22 05:16:34;;;;;;;3.13;2.03;;;19.90;83.30;;;;;;5015992;28;20145;-73
2022/09/22 05:19:03;;;;;;;2.42;1.70;;;20.00;82.90;;;;;;5033245;28;20202;-71
2022/09/22 05:21:30;;;;;;;4.07;1.40;;;20.20;82.60;;;;;;5050670;28;20045;-70
2022/09/22 05:23:59;;;;;;;4.13;1.77;;;20.30;82.20;;;;;;5017001;28;20044;-71
2022/09/22 05:26:27;;;;;;;2.63;1.75;;;20.50;81.80;;;;;;5051186;28;20053;-71
2022/09/22 05:28:56;;;;;;;2.70;1.83;;;20.60;81.50;;;;;;5032750;28;20056;-71
2022/09/22 05:31:24;;;;;;;2.80;1.77;;;20.80;81.20;;;;;;5050049;28;20033;-71
2022/09/22 05:33:51;;;;;;;2.88;1.70;;;20.90;81.20;;;;;;5016188;28;20444;-71
2022/09/22 05:36:19;;;;;;;3.65;2.10;;;21.10;80.80;;;;;;5050377;28;20041;-71
2022/09/22 05:38:47;;;;;;;4.30;1.98;;;21.20;80.10;;;;;;5016266;28;20092;-71
2022/09/22 05:41:14;;;;;;;4.97;2.00;;;21.30;79.70;;;;;;5032856;28;20687;-72
2022/09/22 05:43:42;;;;;;;6.78;2.17;;;21.40;79.40;;;;;;5015453;28;20049;-71
2022/09/22 05:46:10;;;;;;;2.55;1.70;;;21.40;79.00;;;;;;4998960;28;20052;-72
2022/09/22 05:48:37;;;;;;;3.78;1.63;;;21.50;79.00;;;;;;5032363;28;20501;-71
2022/09/22 05:51:05;;;;;;;2.88;1.80;;;21.50;79.00;;;;;;5048533;28;20045;-72
2022/09/22 05:53:32;;;;;;;5.05;1.55;;;21.50;79.10;;;;;;5049395;28;20051;-70
2022/09/22 05:56:00;;;;;;;3.33;1.98;;;21.50;79.20;;;;;;5031624;28;20098;-71
2022/09/22 05:58:27;;;;;;;5.78;1.90;;;21.60;79.90;;;;;;5031942;28;20119;-71
2022/09/22 06:00:56;;;;;;;3.42;1.60;;;21.70;79.00;;;;;;5015063;28;20783;-71
2022/09/22 06:03:24;;;;;;;4.45;2.13;;;21.80;79.00;;;;;;5015045;28;20041;-72
2022/09/22 06:05:52;;;;;;;2.03;1.33;;;21.90;78.70;;;;;;5031922;28;20151;-73
2022/09/22 06:08:19;;;;;;;4.45;1.55;;;21.90;78.60;;;;;;5031630;28;20496;-71
2022/09/22 06:10:50;;;;;;;6.20;1.80;;;22.00;77.90;;;;;;5031255;28;20057;-71
2022/09/22 06:13:17;;;;;;;4.93;2.00;;;22.10;78.20;;;;;;5032022;28;20139;-72
2022/09/22 06:15:47;;;;;;;2.80;1.30;;;22.20;77.80;;;;;;5015135;28;20099;-72
2022/09/22 06:18:19;;;;;;;5.25;2.22;;;22.20;77.60;;;;;;5031969;28;20060;-71
2022/09/22 06:20:50;;;;;;;3.60;1.50;;;22.30;78.00;;;;;;5032335;28;20367;-70
2022/09/22 06:23:19;;;;;;;3.70;1.73;;;22.40;78.80;;;;;;5031554;28;20410;-72
2022/09/22 06:25:46;;;;;;;2.25;1.50;;;22.50;79.20;;;;;;5031613;28;20053;-72
2022/09/22 06:28:14;;;;;;;4.20;1.52;;;22.50;79.20;;;;;;4998911;28;20806;-72
2022/09/22 06:30:42;;;;;;;3.40;1.60;;;22.60;79.00;;;;;;5014675;28;20053;-71
2022/09/22 06:33:10;;;;;;;5.45;1.90;;;22.70;79.60;;;;;;5049411;28;20509;-72
2022/09/22 06:35:41;;;;;;;3.75;2.05;;;22.60;80.00;;;;;;5031474;28;20037;-72
2022/09/22 06:38:13;;;;;;;2.63;1.67;;;22.70;79.90;;;;;;5014994;28;20119;-72
2022/09/22 06:40:42;;;;;;;5.45;2.05;;;22.80;78.50;;;;;;5014790;28;20048;-71
2022/09/22 06:43:16;;;;;;;5.88;2.05;;;22.90;78.50;;;;;;5015351;28;20356;-73
2022/09/22 06:45:43;;;;;;;4.90;2.05;;;23.00;79.30;;;;;;5015187;28;20114;-71
2022/09/22 06:48:11;;;;;;;4.15;1.40;;;23.10;79.80;;;;;;5031361;28;20044;-71
2022/09/22 06:50:39;;;;;;;2.88;1.65;;;23.10;79.50;;;;;;5049599;28;20044;-72
2022/09/22 06:53:12;;;;;;;6.80;1.80;;;23.20;80.00;;;;;;5048848;28;20037;-73
2022/09/22 06:55:42;;;;;;;6.85;2.58;;;23.40;80.20;;;;;;5031406;28;20124;-71
2022/09/22 06:58:11;;;;;;;2.88;1.77;;;23.50;77.80;;;;;;5049255;28;20041;-73
2022/09/22 07:00:41;;;;;;;4.00;1.95;;;23.60;76.80;;;;;;5048097;28;20384;-71
2022/09/22 07:03:25;;;;;;;2.70;1.80;;;23.40;76.80;;;;;;5048437;28;20077;-74
2022/09/22 07:05:59;;;;;;;3.35;1.45;;;23.40;76.40;;;;;;5031090;28;20052;-72
2022/09/22 07:08:29;;;;;;;6.05;1.50;;;23.30;77.50;;;;;;5030738;28;20068;-71
2022/09/22 07:11:02;;;;;;;5.32;1.95;;;23.40;77.60;;;;;;5048671;28;20076;-71
2022/09/22 07:13:31;;;;;;;3.30;1.55;;;23.40;77.00;;;;;;5031284;28;20040;-72
2022/09/22 07:16:06;;;;;;;3.40;1.52;;;23.70;77.00;;;;;;4997959;28;20051;-71
2022/09/22 07:18:35;;;;;;;4.25;1.63;;;23.80;75.80;;;;;;4998048;28;20103;-71
2022/09/22 07:21:10;;;;;;;3.35;1.40;;;23.80;75.30;;;;;;4998442;28;20045;-72
2022/09/22 07:23:39;;;;;;;3.78;1.33;;;23.80;74.50;;;;;;5014364;28;20144;-71
2022/09/22 07:26:13;;;;;;;3.25;1.52;;;23.80;74.60;;;;;;5030465;28;20144;-74
2022/09/22 07:28:40;;;;;;;2.95;1.60;;;23.90;75.40;;;;;;5029982;28;20045;-71
2022/09/22 07:31:10;;;;;;;2.42;1.23;;;23.90;74.60;;;;;;5014135;28;20098;-71
2022/09/22 07:33:42;;;;;;;2.40;1.20;;;24.00;72.40;;;;;;5047310;28;20767;-73
2022/09/22 07:36:14;;;;;;;2.28;1.45;;;24.00;73.30;;;;;;5030611;28;20084;-72
2022/09/22 07:38:44;;;;;;;4.57;1.83;;;24.00;73.80;;;;;;5030139;28;20048;-71
2022/09/22 07:41:14;;;;;;;2.53;1.50;;;24.00;74.20;;;;;;5048400;28;20041;-71
2022/09/22 07:43:41;;;;;;;3.83;1.70;;;24.10;74.50;;;;;;5029839;28;20060;-71
2022/09/22 07:46:11;;;;;;;4.40;1.70;;;23.90;74.50;;;;;;5029995;28;20045;-71
2022/09/22 07:48:44;;;;;;;3.50;1.75;;;23.60;74.30;;;;;;5047814;28;20040;-72
2022/09/22 07:51:21;;;;;;;4.22;1.90;;;23.60;75.00;;;;;;5030047;28;20041;-72
2022/09/22 07:54:05;;;;;;;4.57;1.77;;;23.80;75.90;;;;;;4996632;28;20048;-71
2022/09/22 07:56:39;;;;;;;3.58;1.52;;;23.60;73.70;;;;;;5029148;28;20053;-71
2022/09/22 07:59:09;;;;;;;2.08;1.27;;;23.70;73.70;;;;;;5013312;28;20052;-71
2022/09/22 08:01:42;;;;;;;2.95;1.80;;;23.80;74.30;;;;;;5029244;28;20043;-71
2022/09/22 08:04:14;;;;;;;3.65;1.30;;;24.10;73.60;;;;;;5047940;28;20072;-75
2022/09/22 08:06:43;;;;;;;6.57;1.80;;;24.30;73.70;;;;;;5047651;28;20045;-72
2022/09/22 08:09:11;;;;;;;6.82;2.30;;;24.50;73.80;;;;;;5048059;28;20045;-72
2022/09/22 08:11:39;;;;;;;7.93;4.25;;;24.50;73.50;;;;;;5029009;28;20097;-72
2022/09/22 08:14:10;;;;;;;9.52;3.53;;;24.50;72.70;;;;;;5012763;28;20056;-72
2022/09/22 08:16:39;;;;;;;3.65;2.03;;;24.40;72.30;;;;;;4996217;28;20313;-70
2022/09/22 08:19:11;;;;;;;4.20;1.80;;;24.50;73.20;;;;;;5046797;28;20514;-71
2022/09/22 08:21:41;;;;;;;2.45;1.60;;;24.50;73.00;;;;;;5029911;28;20052;-71
2022/09/22 08:24:15;;;;;;;6.95;2.80;;;24.60;73.00;;;;;;5030078;28;20082;-72
2022/09/22 08:26:43;;;;;;;6.35;2.60;;;24.60;73.10;;;;;;5029445;28;20049;-72
2022/09/22 08:29:13;;;;;;;5.88;2.53;;;24.40;73.60;;;;;;5029568;28;20056;-71
2022/09/22 08:31:41;;;;;;;3.55;2.05;;;24.20;72.60;;;;;;5029570;28;20049;-72
2022/09/22 08:34:08;;;;;;;3.50;1.75;;;24.20;72.30;;;;;;5047404;28;20053;-70
2022/09/22 08:36:37;;;;;;;4.82;2.40;;;24.10;72.30;;;;;;5029459;28;20053;-71
2022/09/22 08:39:05;;;;;;;3.45;1.90;;;23.70;71.40;;;;;;5013263;28;20045;-71
2022/09/22 08:41:38;;;;;;;4.13;2.92;;;23.70;72.10;;;;;;5029091;28;20037;-71
2022/09/22 08:44:09;;;;;;;5.90;2.70;;;23.80;73.50;;;;;;5029843;28;20049;-71
2022/09/22 08:46:39;;;;;;;2.42;1.80;;;23.80;73.70;;;;;;5013194;28;20523;-71
2022/09/22 08:52:39;;;;;;;2.97;1.50;;;24.00;74.00;;;;;;5047476;28;20052;-71
2022/09/22 08:55:23;;;;;;;7.40;4.63;;;24.00;75.70;;;;;;5029733;28;20680;-71
2022/09/22 08:57:55;;;;;;;3.38;1.70;;;24.10;75.30;;;;;;5012630;28;20063;-71
2022/09/22 09:00:24;;;;;;;2.95;1.80;;;24.10;75.00;;;;;;5047162;28;20072;-72
2022/09/22 09:03:09;;;;;;;3.97;1.88;;;24.10;75.30;;;;;;5046968;28;20075;-71
2022/09/22 09:05:45;;;;;;;4.32;1.92;;;24.10;75.40;;;;;;5029727;28;20136;-71
2022/09/22 09:08:28;;;;;;;7.43;1.95;;;24.30;75.00;;;;;;5029380;28;20056;-71
2022/09/22 09:11:19;;;;;;;2.35;1.33;;;24.30;74.10;;;;;;5029052;28;20052;-72
2022/09/22 09:14:11;;;;;;;3.55;1.35;;;24.20;74.80;;;;;;5019421;28;20134;-71
2022/09/22 09:16:59;;;;;;;2.95;1.55;;;24.40;73.30;;;;;;5012047;28;20115;-71
2022/09/22 09:19:29;;;;;;;2.70;1.52;;;24.30;73.60;;;;;;5029346;28;20053;-71
2022/09/22 09:22:02;;;;;;;2.28;1.67;;;24.20;73.70;;;;;;5012523;28;20119;-71
2022/09/22 09:24:36;;;;;;;6.75;2.00;;;24.20;73.50;;;;;;5029727;28;20179;-73
2022/09/22 09:27:28;;;;;;;5.05;1.70;;;24.30;73.40;;;;;;5050146;28;20136;-71
2022/09/22 09:30:05;;;;;;;3.17;1.73;;;24.40;72.10;;;;;;5016194;28;20390;-71
2022/09/22 09:32:45;;;;;;;4.68;2.95;;;24.50;72.90;;;;;;5032243;28;20103;-71
2022/09/22 09:35:16;;;;;;;3.25;2.45;;;24.50;73.40;;;;;;5016157;28;20502;-72
2022/09/22 09:37:46;;;;;;;21.30;2.33;;;24.40;72.00;;;;;;5032263;28;20052;-71
2022/09/22 09:40:17;;;;;;;2.97;1.60;;;24.10;71.60;;;;;;5015956;28;20067;-72
2022/09/22 09:42:52;;;;;;;3.47;1.55;;;24.30;73.30;;;;;;5000021;28;20135;-70
2022/09/22 09:45:28;;;;;;;3.08;1.98;;;24.40;73.80;;;;;;5015732;28;20056;-71
2022/09/22 09:48:02;;;;;;;4.15;1.80;;;24.50;73.40;;;;;;5016194;28;20166;-73
2022/09/22 09:50:30;;;;;;;4.82;2.55;;;24.40;71.80;;;;;;5015710;28;20102;-75
2022/09/22 09:52:59;;;;;;;5.18;2.38;;;24.30;69.30;;;;;;5031910;28;20461;-71
2022/09/22 09:55:27;;;;;;;2.40;1.40;;;24.20;70.20;;;;;;5015421;28;20103;-72
2022/09/22 10:00:29;;;;;;;2.63;1.40;;;24.40;71.30;;;;;;5031944;28;20064;-71
2022/09/22 10:00:58;;;;;;;3.17;1.40;;;24.50;71.50;;;;;;5014807;28;20048;-71
2022/09/22 10:03:33;;;;;;;4.57;1.70;;;24.70;71.30;;;;;;5015482;28;20151;-71
2022/09/22 10:06:08;;;;;;;2.67;1.35;;;24.50;71.10;;;;;;5049844;28;20488;-71
2022/09/22 10:08:49;;;;;;;2.92;1.40;;;24.40;72.90;;;;;;5032123;28;20129;-71
2022/09/22 10:11:30;;;;;;;1.95;1.50;;;24.20;73.40;;;;;;5018493;28;20491;-71
2022/09/22 10:13:58;;;;;;;3.15;1.80;;;24.20;73.30;;;;;;5049565;28;20124;-72
2022/09/22 10:16:32;;;;;;;3.67;2.03;;;24.30;73.10;;;;;;5031053;28;20120;-71
2022/09/22 10:19:16;;;;;;;2.83;1.67;;;24.20;73.10;;;;;;5014753;28;20048;-75
2022/09/22 10:21:43;;;;;;;2.13;1.30;;;24.20;73.30;;;;;;5015638;28;20045;-71
2022/09/22 10:24:50;;;;;;;2.92;1.60;;;24.50;73.00;;;;;;5031701;28;20196;-71
2022/09/22 10:27:23;;;;;;;2.88;1.40;;;24.50;72.70;;;;;;5040968;28;20061;-72
2022/09/22 10:30:14;;;;;;;3.00;1.58;;;24.70;73.10;;;;;;5031758;28;20135;-71
2022/09/22 10:33:02;;;;;;;2.88;1.38;;;24.70;71.60;;;;;;5014549;28;20333;-72
2022/09/22 10:35:32;;;;;;;2.83;1.40;;;24.40;70.40;;;;;;5031181;28;20080;-71
2022/09/22 10:38:12;;;;;;;4.35;1.65;;;24.40;72.10;;;;;;5014621;28;20577;-71
2022/09/22 10:40:45;;;;;;;2.17;1.50;;;24.50;73.20;;;;;;5031066;28;20045;-71
2022/09/22 10:43:47;;;;;;;1.60;1.02;;;24.40;71.10;;;;;;4998411;28;20131;-70
2022/09/22 10:46:27;;;;;;;2.67;1.30;;;24.40;69.60;;;;;;5030753;28;20099;-72
2022/09/22 10:48:55;;;;;;;2.72;1.50;;;24.30;69.40;;;;;;5014807;28;20407;-71
2022/09/22 10:51:44;;;;;;;3.80;1.33;;;24.20;70.80;;;;;;5013892;28;20049;-71
2022/09/22 10:54:40;;;;;;;3.30;1.35;;;24.20;72.30;;;;;;5030578;28;20418;-72
2022/09/22 10:57:20;;;;;;;4.95;2.40;;;24.10;73.60;;;;;;5014156;28;20148;-73
2022/09/22 11:00:11;;;;;;;3.60;2.28;;;24.10;73.40;;;;;;5014074;28;20095;-72
2022/09/22 11:02:56;;;;;;;5.20;2.95;;;24.10;72.30;;;;;;5030559;28;20106;-71
2022/09/22 11:12:16;;;;;;;3.90;2.10;;;24.30;70.90;;;;;;5013538;28;20084;-72
2022/09/22 11:14:58;;;;;;;3.40;1.92;;;24.20;68.00;;;;;;5028196;28;20057;-74
2022/09/22 11:17:53;;;;;;;2.40;1.30;;;24.20;69.20;;;;;;5030614;28;20126;-72
2022/09/22 11:20:41;;;;;;;5.88;1.95;;;24.00;70.70;;;;;;5013876;28;20052;-73
2022/09/22 11:23:25;;;;;;;2.45;1.65;;;24.00;71.70;;;;;;4997276;28;20466;-72
2022/09/22 11:26:27;;;;;;;1.85;1.10;;;24.10;71.20;;;;;;5030569;28;20051;-73
2022/09/22 11:29:04;;;;;;;2.97;1.50;;;24.20;68.50;;;;;;5014327;28;20057;-75
2022/09/22 11:31:35;;;;;;;3.90;2.15;;;24.20;71.80;;;;;;4997416;28;20053;-74
2022/09/22 11:34:05;;;;;;;5.68;1.55;;;24.20;71.60;;;;;;5030964;28;20060;-74
2022/09/22 11:36:52;;;;;;;2.75;1.67;;;24.20;70.60;;;;;;5030262;28;20436;-71
2022/09/22 11:39:38;;;;;;;2.83;1.55;;;24.20;69.70;;;;;;5013813;28;20049;-72
2022/09/22 11:42:23;;;;;;;2.28;0.98;;;24.00;69.90;;;;;;5013040;28;20045;-72
2022/09/22 11:45:16;;;;;;;2.78;1.00;;;23.70;69.70;;;;;;5013704;28;20135;-72
2022/09/22 11:48:43;;;;;;;1.42;1.10;;;23.70;68.90;;;;;;5029801;28;20056;-72
2022/09/22 11:51:38;;;;;;;2.00;1.30;;;23.80;71.30;;;;;;4969744;28;20497;-71
2022/09/22 11:54:46;;;;;;;2.63;1.00;;;23.70;70.60;;;;;;4985950;28;20128;-74
2022/09/22 11:57:18;;;;;;;3.22;1.42;;;23.50;69.10;;;;;;5029247;28;20049;-72
2022/09/22 12:00:08;;;;;;;2.33;1.42;;;23.60;72.40;;;;;;5013557;28;20441;-71
2022/09/22 12:02:46;;;;;;;3.05;1.40;;;23.70;73.50;;;;;;5030178;28;20045;-72
2022/09/22 12:05:25;;;;;;;2.10;1.25;;;23.80;72.80;;;;;;5013205;28;20377;-71
2022/09/22 12:08:01;;;;;;;1.58;0.95;;;23.70;72.80;;;;;;5029887;28;20159;-72
2022/09/22 12:10:34;;;;;;;2.70;1.38;;;23.70;69.40;;;;;;5047333;28;20049;-73
2022/09/22 12:13:14;;;;;;;3.45;1.45;;;23.60;70.20;;;;;;5047629;28;20051;-73
2022/09/22 12:16:00;;;;;;;1.50;1.10;;;23.50;71.40;;;;;;4996521;28;20599;-72
2022/09/22 12:18:38;;;;;;;3.55;1.27;;;23.50;72.10;;;;;;5029070;28;20041;-72
2022/09/22 12:21:35;;;;;;;3.30;1.23;;;23.40;73.20;;;;;;5047339;28;20041;-71
2022/09/22 12:24:08;;;;;;;3.83;1.15;;;23.40;73.30;;;;;;5009385;28;20148;-71
2022/09/22 12:26:38;;;;;;;3.40;1.20;;;23.40;71.60;;;;;;5028834;28;20644;-73
2022/09/22 12:29:27;;;;;;;2.97;1.10;;;23.50;71.50;;;;;;5029078;28;20123;-71
2022/09/22 12:31:57;;;;;;;1.92;1.20;;;23.50;71.80;;;;;;5046735;28;20495;-73
2022/09/22 12:34:38;;;;;;;3.33;0.90;;;23.40;70.20;;;;;;5012953;28;20557;-72
2022/09/22 12:37:30;;;;;;;3.97;0.98;;;23.20;70.70;;;;;;5029045;28;20061;-71
2022/09/22 12:40:12;;;;;;;1.88;1.20;;;23.10;70.20;;;;;;5046512;28;20079;-73
2022/09/22 12:42:45;;;;;;;1.45;0.95;;;23.10;72.60;;;;;;5012527;28;20053;-72
2022/09/22 12:45:36;;;;;;;2.85;1.10;;;23.00;71.70;;;;;;5012794;28;20057;-72
2022/09/22 12:48:15;;;;;;;3.53;1.17;;;22.90;70.60;;;;;;5029650;28;20041;-73
2022/09/22 12:50:44;;;;;;;1.83;1.10;;;22.80;71.70;;;;;;5012837;28;20049;-71
2022/09/22 12:53:21;;;;;;;1.58;1.00;;;22.70;71.50;;;;;;5028526;28;20048;-71
2022/09/22 12:55:50;;;;;;;3.08;1.35;;;22.70;70.60;;;;;;5047592;28;20048;-72
2022/09/22 12:58:24;;;;;;;2.08;1.30;;;22.50;72.40;;;;;;5047070;28;20033;-71
2022/09/22 13:00:55;;;;;;;3.05;1.17;;;22.50;73.10;;;;;;5049183;28;20060;-72
2022/09/22 13:03:26;;;;;;;1.45;1.10;;;22.50;72.90;;;;;;5033032;28;20147;-72
2022/09/22 13:06:01;;;;;;;7.75;3.33;;;22.60;71.90;;;;;;5032149;28;20044;-72
2022/09/22 13:08:31;;;;;;;2.80;1.80;;;22.50;71.20;;;;;;5032912;28;20090;-72
2022/09/22 13:11:07;;;;;;;3.42;1.83;;;22.50;69.90;;;;;;5050231;28;20057;-72
2022/09/22 13:13:42;;;;;;;4.78;1.70;;;22.50;72.20;;;;;;5016392;28;20037;-71
2022/09/22 13:16:13;;;;;;;2.60;1.60;;;22.40;73.00;;;;;;5032869;28;20716;-72
2022/09/22 13:18:55;;;;;;;2.47;1.20;;;22.40;74.00;;;;;;5049835;28;20135;-72
2022/09/22 13:21:25;;;;;;;3.28;1.63;;;22.30;73.70;;;;;;5032963;28;20064;-74
2022/09/22 13:23:53;;;;;;;2.05;1.25;;;22.30;73.20;;;;;;5016417;28;20522;-75
2022/09/22 13:26:35;;;;;;;2.40;1.50;;;22.30;73.10;;;;;;5032543;28;20383;-73
2022/09/22 13:29:13;;;;;;;2.72;1.42;;;22.40;73.60;;;;;;5050197;28;20036;-72
2022/09/22 13:31:44;;;;;;;5.45;1.40;;;22.20;72.90;;;;;;5016236;28;20040;-71
2022/09/22 13:34:29;;;;;;;1.65;1.17;;;22.20;73.70;;;;;;5050044;28;20037;-71